Etusivu
METAR-TAF:

METAR-TAF

Lentoasemat :

Diori Hamanin kansainvälinen lentoasema

Niamey, Niger

Leveyspiiri: 13-29N, Pituuspiiri: 002-10E, korkeus merenpinnasta: 223 m

Tämänhetkinen sää

Tämä raportti tehtiin 57 minuuttia sitten, kello 15.00 UTC
Tuuli 13 kn idästä/kaakosta
Lämpötila 39°C
Kosteus 16%
Ilmanpaine 1007 hPa
Näkyvyys 10 km tai enemmän
Muutamia pilviä 4000 ft:n korkeudessa

METAR: DRRN 201500Z 12013KT 9999 FEW040 39/09 Q1007 NOSIG

Aika: 16:57 (15:57 UTC)

Sääennuste

Tämä raportti tehtiin 4 tuntia ja 57 minuuttia sitten, kello 11.00 UTC
Ennuste voimassa 20. päivästä klo 12 UTC - 21. päivään klo 18 UTC
Tuuli 8 kn lännestä
Näkyvyys: 8000 m
Muutamia pilviä 3000 ft:n korkeudessa
Todennäköisyys 30% :
Ajoittain
20. päivästä klo 16 UTC - 20. päivään klo 21 UTC
Muutamia pilviä 3300 ft:n korkeudessa, Cumulonimbus.
ukkosmyrsky

TAF: DRRN 201100Z 2012/2118 28008KT 8000 FEW030 PROB30 TEMPO 2016/2021 TS FEW033CB

Säähavainnot ja -ennusteet yli 4000 lentoasemalta (METAR- ja TAF-raportit).

Käytössä olevat sääasemat on merkitty karttaan keltaisilla ja punaisilla pisteillä.

Aseta hiiri pisteen päälle nähdäksesi sääaseman nimen.

Klikkaa sitten nähdäksesi säähavainnot ja -ennusteet.

Kartan vaihtaminen: klikkaa mustalla rastilla varustettuja vihreitä pisteitä, niin voit zoomata sisään; viivalla varustettua vihreää pistettä, niin voit zoomata ulos tai vihreitä nuolia, niin pääset viereisille kartoille.


METAR-TAF: